sensor_id;sensor_type;location;lat;lon;timestamp;pressure;altitude;pressure_sealevel;temperature;humidity
47712;BME280;57457;51.634;5.886;2023-04-01T00:05:52;98900;;;10.4;89.5
47712;BME280;57457;51.634;5.886;2023-04-01T00:19:13;98900;;;10.4;89.6
47712;BME280;57457;51.634;5.886;2023-04-01T00:32:34;98900;;;10.3;89.7
47712;BME280;57457;51.634;5.886;2023-04-01T00:45:56;98900;;;10.3;89.8
47712;BME280;57457;51.634;5.886;2023-04-01T00:59:17;98900;;;10.3;89.8
47712;BME280;57457;51.634;5.886;2023-04-01T01:12:37;98900;;;10.3;89.8
47712;BME280;57457;51.634;5.886;2023-04-01T01:25:58;98900;;;10.3;89.7
47712;BME280;57457;51.634;5.886;2023-04-01T01:39:20;98900;;;10.3;89.7
47712;BME280;57457;51.634;5.886;2023-04-01T01:52:41;98900;;;10.3;89.7
47712;BME280;57457;51.634;5.886;2023-04-01T02:06:03;98900;;;10.3;89.7
47712;BME280;57457;51.634;5.886;2023-04-01T02:19:24;98900;;;10.3;89.8
47712;BME280;57457;51.634;5.886;2023-04-01T02:32:45;98900;;;10.3;90.0
47712;BME280;57457;51.634;5.886;2023-04-01T02:46:07;98900;;;10.3;90.0
47712;BME280;57457;51.634;5.886;2023-04-01T02:59:28;98900;;;10.3;89.9
47712;BME280;57457;51.634;5.886;2023-04-01T03:12:50;98900;;;10.3;89.9
47712;BME280;57457;51.634;5.886;2023-04-01T03:26:09;98900;;;10.2;89.9
47712;BME280;57457;51.634;5.886;2023-04-01T03:39:31;99000;;;10.2;90.0
47712;BME280;57457;51.634;5.886;2023-04-01T03:52:51;99000;;;10.2;90.1
47712;BME280;57457;51.634;5.886;2023-04-01T04:06:12;99000;;;10.1;90.1
47712;BME280;57457;51.634;5.886;2023-04-01T04:19:32;99000;;;10.1;90.2
47712;BME280;57457;51.634;5.886;2023-04-01T04:32:52;99000;;;10.0;90.2
47712;BME280;57457;51.634;5.886;2023-04-01T04:46:13;99000;;;10.0;90.3
47712;BME280;57457;51.634;5.886;2023-04-01T04:59:33;99000;;;9.9;90.2
47712;BME280;57457;51.634;5.886;2023-04-01T05:12:53;99000;;;9.9;90.3
47712;BME280;57457;51.634;5.886;2023-04-01T05:26:13;99000;;;9.8;90.3
47712;BME280;57457;51.634;5.886;2023-04-01T05:39:34;99000;;;9.8;90.3
47712;BME280;57457;51.634;5.886;2023-04-01T05:52:55;99000;;;9.8;90.4
47712;BME280;57457;51.634;5.886;2023-04-01T06:06:17;99000;;;9.8;90.5
47712;BME280;57457;51.634;5.886;2023-04-01T06:19:36;99100;;;9.8;90.6
47712;BME280;57457;51.634;5.886;2023-04-01T06:32:56;99100;;;9.8;90.7
47712;BME280;57457;51.634;5.886;2023-04-01T06:46:18;99100;;;9.8;90.7
47712;BME280;57457;51.634;5.886;2023-04-01T06:59:39;99100;;;9.9;90.6
47712;BME280;57457;51.634;5.886;2023-04-01T07:13:00;99100;;;10.1;90.5
47712;BME280;57457;51.634;5.886;2023-04-01T07:26:20;99100;;;10.2;90.3
47712;BME280;57457;51.634;5.886;2023-04-01T07:39:42;99200;;;10.3;90.1
47712;BME280;57457;51.634;5.886;2023-04-01T07:53:03;99200;;;10.5;89.6
47712;BME280;57457;51.634;5.886;2023-04-01T08:06:24;99200;;;10.6;89.2
47712;BME280;57457;51.634;5.886;2023-04-01T08:19:46;99200;;;10.8;89.3
47712;BME280;57457;51.634;5.886;2023-04-01T08:33:06;99200;;;10.8;89.4
47712;BME280;57457;51.634;5.886;2023-04-01T08:46:26;99300;;;10.8;89.7
47712;BME280;57457;51.634;5.886;2023-04-01T08:59:46;99300;;;10.8;89.8
47712;BME280;57457;51.634;5.886;2023-04-01T09:13:07;99300;;;10.8;89.7
47712;BME280;57457;51.634;5.886;2023-04-01T09:26:29;99300;;;10.8;89.7
47712;BME280;57457;51.634;5.886;2023-04-01T09:39:48;99300;;;10.8;89.5
47712;BME280;57457;51.634;5.886;2023-04-01T09:53:08;99400;;;10.8;89.3
47712;BME280;57457;51.634;5.886;2023-04-01T10:06:30;99400;;;10.9;89.4
47712;BME280;57457;51.634;5.886;2023-04-01T10:19:49;99400;;;11.0;89.1
47712;BME280;57457;51.634;5.886;2023-04-01T10:33:09;99400;;;11.1;88.9
47712;BME280;57457;51.634;5.886;2023-04-01T10:46:29;99400;;;11.2;88.7
47712;BME280;57457;51.634;5.886;2023-04-01T10:59:50;99400;;;11.3;88.8
47712;BME280;57457;51.634;5.886;2023-04-01T11:13:12;99400;;;11.3;88.8
47712;BME280;57457;51.634;5.886;2023-04-01T11:26:33;99500;;;11.5;88.1
47712;BME280;57457;51.634;5.886;2023-04-01T11:39:53;99500;;;11.6;88.1
47712;BME280;57457;51.634;5.886;2023-04-01T11:53:13;99500;;;11.7;88.5
47712;BME280;57457;51.634;5.886;2023-04-01T12:06:33;99500;;;11.7;88.6
47712;BME280;57457;51.634;5.886;2023-04-01T12:19:54;99500;;;11.8;88.3
47712;BME280;57457;51.634;5.886;2023-04-01T12:33:16;99500;;;11.9;88.2
47712;BME280;57457;51.634;5.886;2023-04-01T12:46:35;99500;;;11.9;88.0
47712;BME280;57457;51.634;5.886;2023-04-01T12:59:55;99600;;;12.0;87.8
47712;BME280;57457;51.634;5.886;2023-04-01T13:13:15;99600;;;12.1;87.7
47712;BME280;57457;51.634;5.886;2023-04-01T13:53:18;99600;;;12.1;88.0
47712;BME280;57457;51.634;5.886;2023-04-01T14:06:37;99600;;;12.1;88.2
47712;BME280;57457;51.634;5.886;2023-04-01T14:19:57;99600;;;11.9;88.6
47712;BME280;57457;51.634;5.886;2023-04-01T14:33:19;99700;;;11.8;88.8
47712;BME280;57457;51.634;5.886;2023-04-01T14:46:40;99700;;;11.7;88.8
47712;BME280;57457;51.634;5.886;2023-04-01T15:00:01;99700;;;11.6;88.9
47712;BME280;57457;51.634;5.886;2023-04-01T15:13:23;99700;;;11.6;89.0
47712;BME280;57457;51.634;5.886;2023-04-01T15:53:25;99700;;;11.7;88.6
47712;BME280;57457;51.634;5.886;2023-04-01T16:06:45;99800;;;11.7;88.7
47712;BME280;57457;51.634;5.886;2023-04-01T16:20:06;99800;;;11.7;88.7
47712;BME280;57457;51.634;5.886;2023-04-01T16:33:28;99800;;;11.6;88.8
47712;BME280;57457;51.634;5.886;2023-04-01T16:46:49;99800;;;11.6;89.1
47712;BME280;57457;51.634;5.886;2023-04-01T17:00:09;99800;;;11.5;89.0
47712;BME280;57457;51.634;5.886;2023-04-01T17:13:29;99900;;;11.6;88.7
47712;BME280;57457;51.634;5.886;2023-04-01T17:26:49;99900;;;11.7;89.0
47712;BME280;57457;51.634;5.886;2023-04-01T17:40:10;99900;;;11.7;89.0
47712;BME280;57457;51.634;5.886;2023-04-01T17:53:30;99900;;;11.6;89.0
47712;BME280;57457;51.634;5.886;2023-04-01T18:06:50;100000;;;11.5;89.3
47712;BME280;57457;51.634;5.886;2023-04-01T18:20:09;100000;;;11.2;89.4
47712;BME280;57457;51.634;5.886;2023-04-01T18:33:31;100000;;;10.9;89.5
47712;BME280;57457;51.634;5.886;2023-04-01T18:46:52;100100;;;10.7;89.7
47712;BME280;57457;51.634;5.886;2023-04-01T19:00:14;100100;;;10.5;89.5
47712;BME280;57457;51.634;5.886;2023-04-01T19:13:33;100100;;;10.3;89.6
47712;BME280;57457;51.634;5.886;2023-04-01T19:26:55;100100;;;10.3;89.6
47712;BME280;57457;51.634;5.886;2023-04-01T19:40:16;100200;;;10.1;89.6
47712;BME280;57457;51.634;5.886;2023-04-01T19:53:38;100200;;;10.0;89.7
47712;BME280;57457;51.634;5.886;2023-04-01T20:06:57;100200;;;9.8;89.7
47712;BME280;57457;51.634;5.886;2023-04-01T20:20:19;100300;;;9.6;89.6
47712;BME280;57457;51.634;5.886;2023-04-01T20:33:40;100300;;;9.4;89.5
47712;BME280;57457;51.634;5.886;2023-04-01T20:47:02;100300;;;9.4;89.4
47712;BME280;57457;51.634;5.886;2023-04-01T21:13:41;100400;;;9.2;89.3
47712;BME280;57457;51.634;5.886;2023-04-01T21:27:01;100400;;;9.1;89.3
47712;BME280;57457;51.634;5.886;2023-04-01T21:40:23;100400;;;8.9;89.0
47712;BME280;57457;51.634;5.886;2023-04-01T21:53:43;100500;;;8.8;89.1
47712;BME280;57457;51.634;5.886;2023-04-01T22:07:04;100500;;;8.6;89.0
47712;BME280;57457;51.634;5.886;2023-04-01T22:20:25;100500;;;8.5;89.0
47712;BME280;57457;51.634;5.886;2023-04-01T22:47:05;100600;;;8.2;89.4
47712;BME280;57457;51.634;5.886;2023-04-01T23:00:25;100600;;;8.1;89.2
47712;BME280;57457;51.634;5.886;2023-04-01T23:13:45;100600;;;8.0;89.0
47712;BME280;57457;51.634;5.886;2023-04-01T23:27:06;100600;;;7.8;89.0
47712;BME280;57457;51.634;5.886;2023-04-01T23:40:26;100700;;;7.7;88.7
47712;BME280;57457;51.634;5.886;2023-04-01T23:53:46;100700;;;7.7;88.5
